Aeroporto :
LOGIN :

Iscrizione | Disclaimer

   EN    FR    IT 

 










Sommario :    VFR   VFR Marginale   IFR   IFR Intensivo   IFR Molto Intensivo
Visibilità : 
Base nubi : 
>= 8 km
>= 3000ft
5 / 8 km
1000 / 3000 ft
1500m / 5 km
500 / 1000 ft
800 / 1500m
200 / 500 ft
< 800m
< 200 ft
Simboli :   Temporali  Nebbia  Neve Forte  Precipitazioni Forti  Vento > 20 kt
SIGMETs :   Varie  Temporali  Ghiacco  Turbolenza  Onda orograficha  Ceneri Vulcaniche






- Altitudine del aeroporto : 416 ft
- Codice IATA : OVD


LEAS - Asturias

ULTIMO METAR :
  • 012130Z VRB03KT 9999 FEW004 SCT008 BKN045 11/11 Q1015 TEMPO 3000 BR

METARs OBSOLETI :
  • 012100Z 07003KT 020V120 9000 SCT003 SCT008 BKN040 11/10 Q1015 TEMPO 3000 BR
  • 012030Z 08004KT 050V120 8000 SCT005 SCT012 BKN020 11/10 Q1014 TEMPO 3000 BR
  • 012000Z 07004KT 020V110 7000 SCT005 SCT010 BKN035 11/10 Q1014 TEMPO 3000 BR
  • 011930Z 06003KT 010V090 6000 -RADZ SCT005 BKN028 11/11 Q1014 TEMPO 3000 -RA BR
  • 011900Z 06004KT 360V100 4500 -RADZ FEW001 SCT004 BKN020 11/10 Q1013 NOSIG
  • 011852Z 06004KT 010V100 5000 -RADZ FEW003 SCT007 BKN024 11/11 Q1013 TEMPO 3000 BR BKN005
  • 011830Z 06004KT 020V110 9000 -RA FEW006 SCT012 BKN035 12/11 Q1013 NOSIG

TAF TAF LEAS
Valido dal 01 a 21 ore il 02 a 21 ore UTC


012000Z 0121/0221 07005KT 9999 SCT025 TX13/0214Z TN08/0206Z
PROB40
TEMPO 0121/0207 3000 -RA BR BKN005 BKN010
PROB30
TEMPO 0200/0207 1500 BCFG BKN005
PROB40
TEMPO 0205/0214 3000 RA SHRA BKN010 SCT030TCU



MetMap, La meteo Aeronautica in un colpo d'occhio ! - Copyright ORBIFLY Dicembre 2007 - Disclaimer

ORBIFLY MET'MAP TEAM :

Programmazione e sviluppo : Alexandra Zaïnal
Concezione : Baudouin d'Aumeries
Aiuto per la programmazione : Marc-Olivier Méhu
Supporto tecnico e logistico : Manuel Goepfert
Aiuto per la traduzione : Arnaldo La Scala

Contatto : metmap@orbifly.com




FONTI E CREDITI :

   NOAA